sensor_id;sensor_type;location;lat;lon;timestamp;pressure;altitude;pressure_sealevel;temperature;humidity
75192;BME280;63771;52.580;9.734;2023-09-07T00:02:25;101865.75;;;18.55;77.61
75192;BME280;63771;52.580;9.734;2023-09-07T00:04:50;101867.22;;;18.51;78.46
75192;BME280;63771;52.580;9.734;2023-09-07T00:07:15;101864.75;;;18.52;78.61
75192;BME280;63771;52.580;9.734;2023-09-07T00:09:41;101867.13;;;18.49;78.70
75192;BME280;63771;52.580;9.734;2023-09-07T00:12:06;101863.25;;;18.43;78.65
75192;BME280;63771;52.580;9.734;2023-09-07T00:14:31;101863.91;;;18.40;79.44
75192;BME280;63771;52.580;9.734;2023-09-07T00:16:57;101860.13;;;18.35;79.48
75192;BME280;63771;52.580;9.734;2023-09-07T00:19:22;101859.44;;;18.38;79.28
75192;BME280;63771;52.580;9.734;2023-09-07T00:21:47;101860.34;;;18.38;79.42
75192;BME280;63771;52.580;9.734;2023-09-07T00:24:13;101855.75;;;18.34;79.02
75192;BME280;63771;52.580;9.734;2023-09-07T00:26:38;101854.31;;;18.26;79.81
75192;BME280;63771;52.580;9.734;2023-09-07T00:29:03;101857.94;;;18.16;80.29
75192;BME280;63771;52.580;9.734;2023-09-07T00:31:29;101859.31;;;18.11;80.33
75192;BME280;63771;52.580;9.734;2023-09-07T00:33:54;101858.41;;;18.11;80.41
75192;BME280;63771;52.580;9.734;2023-09-07T00:36:19;101861.88;;;18.11;80.22
75192;BME280;63771;52.580;9.734;2023-09-07T00:38:45;101855.50;;;18.06;80.87
75192;BME280;63771;52.580;9.734;2023-09-07T00:41:12;101850.81;;;18.00;80.50
75192;BME280;63771;52.580;9.734;2023-09-07T00:43:38;101858.25;;;17.96;81.46
75192;BME280;63771;52.580;9.734;2023-09-07T00:46:05;101852.63;;;17.90;81.03
75192;BME280;63771;52.580;9.734;2023-09-07T00:48:31;101855.53;;;17.94;81.46
75192;BME280;63771;52.580;9.734;2023-09-07T00:50:56;101850.28;;;17.93;81.22
75192;BME280;63771;52.580;9.734;2023-09-07T00:53:21;101854.31;;;17.89;81.30
75192;BME280;63771;52.580;9.734;2023-09-07T00:55:50;101853.44;;;17.89;81.40
75192;BME280;63771;52.580;9.734;2023-09-07T00:58:15;101854.78;;;17.84;81.78
75192;BME280;63771;52.580;9.734;2023-09-07T01:00:40;101850.19;;;17.80;81.93
75192;BME280;63771;52.580;9.734;2023-09-07T01:03:06;101850.00;;;17.77;81.69
75192;BME280;63771;52.580;9.734;2023-09-07T01:05:42;101845.63;;;17.76;81.68
75192;BME280;63771;52.580;9.734;2023-09-07T01:08:19;101843.69;;;17.73;82.16
75192;BME280;63771;52.580;9.734;2023-09-07T01:10:46;101848.41;;;17.67;82.38
75192;BME280;63771;52.580;9.734;2023-09-07T01:13:11;101850.22;;;17.56;82.78
75192;BME280;63771;52.580;9.734;2023-09-07T01:15:37;101844.38;;;17.47;82.87
75192;BME280;63771;52.580;9.734;2023-09-07T01:18:03;101845.19;;;17.46;83.20
75192;BME280;63771;52.580;9.734;2023-09-07T01:20:30;101850.69;;;17.39;83.51
75192;BME280;63771;52.580;9.734;2023-09-07T01:22:57;101844.50;;;17.37;83.53
75192;BME280;63771;52.580;9.734;2023-09-07T01:25:23;101844.63;;;17.38;83.56
75192;BME280;63771;52.580;9.734;2023-09-07T01:27:49;101842.63;;;17.34;83.71
75192;BME280;63771;52.580;9.734;2023-09-07T01:30:15;101838.66;;;17.28;83.77
75192;BME280;63771;52.580;9.734;2023-09-07T01:32:40;101840.69;;;17.32;83.89
75192;BME280;63771;52.580;9.734;2023-09-07T01:35:06;101838.56;;;17.26;84.10
75192;BME280;63771;52.580;9.734;2023-09-07T01:37:35;101838.13;;;17.20;83.99
75192;BME280;63771;52.580;9.734;2023-09-07T01:40:00;101833.41;;;17.14;84.46
75192;BME280;63771;52.580;9.734;2023-09-07T01:42:25;101841.16;;;17.14;84.26
75192;BME280;63771;52.580;9.734;2023-09-07T01:44:51;101841.81;;;17.12;84.91
75192;BME280;63771;52.580;9.734;2023-09-07T01:47:16;101841.25;;;17.16;84.05
75192;BME280;63771;52.580;9.734;2023-09-07T01:49:41;101841.59;;;17.09;84.11
75192;BME280;63771;52.580;9.734;2023-09-07T01:52:07;101844.38;;;17.00;84.23
75192;BME280;63771;52.580;9.734;2023-09-07T01:54:32;101839.78;;;16.96;85.00
75192;BME280;63771;52.580;9.734;2023-09-07T01:56:57;101846.75;;;16.97;84.95
75192;BME280;63771;52.580;9.734;2023-09-07T01:59:23;101852.38;;;16.91;85.15
75192;BME280;63771;52.580;9.734;2023-09-07T02:01:48;101852.13;;;16.88;85.54
75192;BME280;63771;52.580;9.734;2023-09-07T02:04:13;101845.19;;;16.87;85.21
75192;BME280;63771;52.580;9.734;2023-09-07T02:06:39;101853.69;;;16.86;85.34
75192;BME280;63771;52.580;9.734;2023-09-07T02:09:04;101852.00;;;16.87;85.21
75192;BME280;63771;52.580;9.734;2023-09-07T02:11:29;101850.53;;;16.79;85.57
75192;BME280;63771;52.580;9.734;2023-09-07T02:13:55;101849.97;;;16.83;84.80
75192;BME280;63771;52.580;9.734;2023-09-07T02:16:20;101849.75;;;16.80;84.83
75192;BME280;63771;52.580;9.734;2023-09-07T02:18:49;101845.03;;;16.74;84.58
75192;BME280;63771;52.580;9.734;2023-09-07T02:21:14;101842.06;;;16.69;84.85
75192;BME280;63771;52.580;9.734;2023-09-07T02:23:39;101852.16;;;16.66;85.50
75192;BME280;63771;52.580;9.734;2023-09-07T02:26:06;101846.75;;;16.63;85.42
75192;BME280;63771;52.580;9.734;2023-09-07T02:28:31;101843.19;;;16.61;84.57
75192;BME280;63771;52.580;9.734;2023-09-07T02:31:04;101851.91;;;16.63;84.75
75192;BME280;63771;52.580;9.734;2023-09-07T02:33:30;101851.91;;;16.63;84.57
75192;BME280;63771;52.580;9.734;2023-09-07T02:35:55;101852.47;;;16.59;84.65
75192;BME280;63771;52.580;9.734;2023-09-07T02:38:21;101856.38;;;16.54;84.77
75192;BME280;63771;52.580;9.734;2023-09-07T02:40:46;101852.44;;;16.48;84.72
75192;BME280;63771;52.580;9.734;2023-09-07T02:43:11;101851.22;;;16.54;85.02
75192;BME280;63771;52.580;9.734;2023-09-07T02:45:38;101849.97;;;16.49;84.63
75192;BME280;63771;52.580;9.734;2023-09-07T02:48:04;101848.63;;;16.54;84.11
75192;BME280;63771;52.580;9.734;2023-09-07T02:50:31;101856.78;;;16.49;84.48
75192;BME280;63771;52.580;9.734;2023-09-07T02:52:57;101861.94;;;16.49;84.30
75192;BME280;63771;52.580;9.734;2023-09-07T02:55:22;101866.00;;;16.45;84.53
75192;BME280;63771;52.580;9.734;2023-09-07T02:57:48;101864.16;;;16.44;84.45
75192;BME280;63771;52.580;9.734;2023-09-07T03:00:13;101860.91;;;16.35;84.23
75192;BME280;63771;52.580;9.734;2023-09-07T03:02:39;101865.72;;;16.30;84.43
75192;BME280;63771;52.580;9.734;2023-09-07T03:05:04;101863.41;;;16.23;84.81
75192;BME280;63771;52.580;9.734;2023-09-07T03:07:33;101863.09;;;16.18;84.94
75192;BME280;63771;52.580;9.734;2023-09-07T03:09:59;101858.03;;;16.20;84.88
75192;BME280;63771;52.580;9.734;2023-09-07T03:12:24;101858.47;;;16.14;84.93
75192;BME280;63771;52.580;9.734;2023-09-07T03:14:49;101859.13;;;16.12;85.11
75192;BME280;63771;52.580;9.734;2023-09-07T03:17:16;101859.78;;;16.09;85.37
75192;BME280;63771;52.580;9.734;2023-09-07T03:19:41;101862.13;;;16.06;85.16
75192;BME280;63771;52.580;9.734;2023-09-07T03:22:07;101862.91;;;16.05;85.05
75192;BME280;63771;52.580;9.734;2023-09-07T03:24:33;101864.22;;;16.00;85.41
75192;BME280;63771;52.580;9.734;2023-09-07T03:26:58;101860.63;;;15.98;85.45
75192;BME280;63771;52.580;9.734;2023-09-07T03:29:24;101862.16;;;15.96;85.68
75192;BME280;63771;52.580;9.734;2023-09-07T03:31:50;101859.59;;;15.96;85.25
75192;BME280;63771;52.580;9.734;2023-09-07T03:34:15;101856.00;;;15.94;85.48
75192;BME280;63771;52.580;9.734;2023-09-07T03:36:40;101853.44;;;15.94;85.47
75192;BME280;63771;52.580;9.734;2023-09-07T03:39:06;101863.47;;;15.91;85.61
75192;BME280;63771;52.580;9.734;2023-09-07T03:41:33;101856.78;;;15.93;85.40
75192;BME280;63771;52.580;9.734;2023-09-07T03:43:59;101850.59;;;15.91;85.12
75192;BME280;63771;52.580;9.734;2023-09-07T03:46:26;101849.81;;;15.92;85.06
75192;BME280;63771;52.580;9.734;2023-09-07T03:48:51;101853.19;;;15.91;85.25
75192;BME280;63771;52.580;9.734;2023-09-07T03:51:17;101861.84;;;15.81;85.69
75192;BME280;63771;52.580;9.734;2023-09-07T03:53:42;101844.88;;;15.83;85.40
75192;BME280;63771;52.580;9.734;2023-09-07T03:56:08;101864.97;;;15.77;85.92
75192;BME280;63771;52.580;9.734;2023-09-07T03:58:33;101860.59;;;15.76;85.69
75192;BME280;63771;52.580;9.734;2023-09-07T04:00:59;101861.16;;;15.72;85.88
75192;BME280;63771;52.580;9.734;2023-09-07T04:03:25;101865.50;;;15.73;85.65
75192;BME280;63771;52.580;9.734;2023-09-07T04:05:50;101865.41;;;15.72;85.76
75192;BME280;63771;52.580;9.734;2023-09-07T04:08:16;101868.97;;;15.74;85.69
75192;BME280;63771;52.580;9.734;2023-09-07T04:10:41;101867.19;;;15.73;85.20
75192;BME280;63771;52.580;9.734;2023-09-07T04:13:06;101859.09;;;15.68;85.64
75192;BME280;63771;52.580;9.734;2023-09-07T04:15:33;101860.41;;;15.63;85.86
75192;BME280;63771;52.580;9.734;2023-09-07T04:17:59;101861.94;;;15.61;85.95
75192;BME280;63771;52.580;9.734;2023-09-07T04:20:24;101860.78;;;15.57;86.29
75192;BME280;63771;52.580;9.734;2023-09-07T04:22:51;101866.16;;;15.60;86.13
75192;BME280;63771;52.580;9.734;2023-09-07T04:25:16;101864.38;;;15.59;86.05
75192;BME280;63771;52.580;9.734;2023-09-07T04:27:42;101867.72;;;15.58;85.90
75192;BME280;63771;52.580;9.734;2023-09-07T04:30:07;101866.81;;;15.58;85.76
75192;BME280;63771;52.580;9.734;2023-09-07T04:32:33;101872.59;;;15.55;85.74
75192;BME280;63771;52.580;9.734;2023-09-07T04:34:58;101874.94;;;15.52;86.15
75192;BME280;63771;52.580;9.734;2023-09-07T04:37:24;101872.50;;;15.54;85.82
75192;BME280;63771;52.580;9.734;2023-09-07T04:39:51;101874.16;;;15.53;85.87
75192;BME280;63771;52.580;9.734;2023-09-07T04:42:18;101873.53;;;15.56;85.91
75192;BME280;63771;52.580;9.734;2023-09-07T04:44:43;101872.38;;;15.52;85.85
75192;BME280;63771;52.580;9.734;2023-09-07T04:47:08;101866.97;;;15.49;85.84
75192;BME280;63771;52.580;9.734;2023-09-07T04:49:34;101876.88;;;15.45;86.34
75192;BME280;63771;52.580;9.734;2023-09-07T04:51:59;101871.75;;;15.45;86.32
75192;BME280;63771;52.580;9.734;2023-09-07T04:54:24;101881.81;;;15.42;86.22
75192;BME280;63771;52.580;9.734;2023-09-07T04:56:49;101878.56;;;15.44;86.25
75192;BME280;63771;52.580;9.734;2023-09-07T04:59:15;101884.38;;;15.42;86.29
75192;BME280;63771;52.580;9.734;2023-09-07T05:01:40;101881.69;;;15.40;86.49
75192;BME280;63771;52.580;9.734;2023-09-07T05:04:06;101890.81;;;15.36;87.21
75192;BME280;63771;52.580;9.734;2023-09-07T05:06:31;101884.78;;;15.36;87.34
75192;BME280;63771;52.580;9.734;2023-09-07T05:08:59;101884.78;;;15.36;87.75
75192;BME280;63771;52.580;9.734;2023-09-07T05:11:24;101881.72;;;15.30;88.35
75192;BME280;63771;52.580;9.734;2023-09-07T05:13:50;101880.94;;;15.31;88.11
75192;BME280;63771;52.580;9.734;2023-09-07T05:16:15;101880.94;;;15.31;88.42
75192;BME280;63771;52.580;9.734;2023-09-07T05:18:41;101886.31;;;15.34;88.33
75192;BME280;63771;52.580;9.734;2023-09-07T05:21:14;101887.56;;;15.39;87.98
75192;BME280;63771;52.580;9.734;2023-09-07T05:23:40;101887.97;;;15.44;88.06
75192;BME280;63771;52.580;9.734;2023-09-07T05:26:06;101885.50;;;15.45;88.29
75192;BME280;63771;52.580;9.734;2023-09-07T05:28:31;101891.91;;;15.50;87.99
75192;BME280;63771;52.580;9.734;2023-09-07T05:30:56;101884.47;;;15.53;87.70
75192;BME280;63771;52.580;9.734;2023-09-07T05:33:22;101883.28;;;15.60;87.08
75192;BME280;63771;52.580;9.734;2023-09-07T05:35:47;101883.16;;;15.58;88.04
75192;BME280;63771;52.580;9.734;2023-09-07T05:38:13;101882.78;;;15.64;87.49
75192;BME280;63771;52.580;9.734;2023-09-07T05:40:42;101883.41;;;15.72;87.10
75192;BME280;63771;52.580;9.734;2023-09-07T05:43:09;101888.91;;;15.76;86.97
75192;BME280;63771;52.580;9.734;2023-09-07T05:45:38;101894.31;;;15.79;87.22
75192;BME280;63771;52.580;9.734;2023-09-07T05:48:04;101888.38;;;15.80;87.09
75192;BME280;63771;52.580;9.734;2023-09-07T05:50:31;101894.56;;;15.82;87.08
75192;BME280;63771;52.580;9.734;2023-09-07T05:52:56;101891.72;;;15.79;88.22
75192;BME280;63771;52.580;9.734;2023-09-07T05:55:22;101900.59;;;15.83;88.38
75192;BME280;63771;52.580;9.734;2023-09-07T05:57:48;101896.84;;;15.89;87.68
75192;BME280;63771;52.580;9.734;2023-09-07T06:00:14;101899.88;;;15.96;87.29
75192;BME280;63771;52.580;9.734;2023-09-07T06:02:42;101905.41;;;16.00;87.68
75192;BME280;63771;52.580;9.734;2023-09-07T06:05:08;101909.91;;;16.03;88.22
75192;BME280;63771;52.580;9.734;2023-09-07T06:07:33;101912.97;;;16.09;87.70
75192;BME280;63771;52.580;9.734;2023-09-07T06:09:59;101904.94;;;16.16;87.12
75192;BME280;63771;52.580;9.734;2023-09-07T06:12:24;101906.97;;;16.20;87.35
75192;BME280;63771;52.580;9.734;2023-09-07T06:14:50;101906.44;;;16.24;87.04
75192;BME280;63771;52.580;9.734;2023-09-07T06:17:15;101911.97;;;16.29;86.55
75192;BME280;63771;52.580;9.734;2023-09-07T06:19:40;101909.59;;;16.32;86.67
75192;BME280;63771;52.580;9.734;2023-09-07T06:22:06;101913.44;;;16.37;86.43
75192;BME280;63771;52.580;9.734;2023-09-07T06:24:31;101911.31;;;16.43;86.01
75192;BME280;63771;52.580;9.734;2023-09-07T06:26:56;101914.38;;;16.49;85.49
75192;BME280;63771;52.580;9.734;2023-09-07T06:29:21;101918.19;;;16.54;85.13
75192;BME280;63771;52.580;9.734;2023-09-07T06:31:47;101915.97;;;16.59;85.16
75192;BME280;63771;52.580;9.734;2023-09-07T06:34:15;101916.13;;;16.60;85.32
75192;BME280;63771;52.580;9.734;2023-09-07T06:36:40;101917.38;;;16.65;84.74
75192;BME280;63771;52.580;9.734;2023-09-07T06:39:05;101922.75;;;16.68;84.85
75192;BME280;63771;52.580;9.734;2023-09-07T06:41:31;101923.78;;;16.70;84.75
75192;BME280;63771;52.580;9.734;2023-09-07T06:43:56;101918.97;;;16.75;84.76
75192;BME280;63771;52.580;9.734;2023-09-07T06:46:21;101916.75;;;16.80;85.03
75192;BME280;63771;52.580;9.734;2023-09-07T06:48:47;101914.63;;;16.86;83.71
75192;BME280;63771;52.580;9.734;2023-09-07T06:51:12;101923.63;;;16.91;84.61
75192;BME280;63771;52.580;9.734;2023-09-07T06:53:37;101923.22;;;16.97;84.86
75192;BME280;63771;52.580;9.734;2023-09-07T06:56:03;101926.25;;;17.03;84.60
75192;BME280;63771;52.580;9.734;2023-09-07T06:58:29;101924.22;;;17.10;84.71
75192;BME280;63771;52.580;9.734;2023-09-07T07:00:58;101918.63;;;17.16;84.47
75192;BME280;63771;52.580;9.734;2023-09-07T07:03:26;101919.09;;;17.22;84.08
75192;BME280;63771;52.580;9.734;2023-09-07T07:05:52;101916.84;;;17.27;83.87
75192;BME280;63771;52.580;9.734;2023-09-07T07:08:17;101915.50;;;17.32;84.02
75192;BME280;63771;52.580;9.734;2023-09-07T07:10:43;101919.47;;;17.38;84.06
75192;BME280;63771;52.580;9.734;2023-09-07T07:13:08;101918.22;;;17.45;84.19
75192;BME280;63771;52.580;9.734;2023-09-07T07:15:34;101908.25;;;17.50;83.80
75192;BME280;63771;52.580;9.734;2023-09-07T07:18:00;101914.75;;;17.56;84.30
75192;BME280;63771;52.580;9.734;2023-09-07T07:20:26;101910.13;;;17.64;84.22
75192;BME280;63771;52.580;9.734;2023-09-07T07:22:51;101914.06;;;17.70;83.98
75192;BME280;63771;52.580;9.734;2023-09-07T07:25:17;101911.16;;;17.78;83.66
75192;BME280;63771;52.580;9.734;2023-09-07T07:27:42;101915.97;;;17.85;83.68
75192;BME280;63771;52.580;9.734;2023-09-07T07:30:08;101919.13;;;17.92;83.50
75192;BME280;63771;52.580;9.734;2023-09-07T07:32:34;101920.66;;;18.02;83.04
75192;BME280;63771;52.580;9.734;2023-09-07T07:34:59;101917.72;;;18.09;83.26
75192;BME280;63771;52.580;9.734;2023-09-07T07:37:24;101917.50;;;18.18;82.52
75192;BME280;63771;52.580;9.734;2023-09-07T07:39:50;101913.63;;;18.24;82.97
75192;BME280;63771;52.580;9.734;2023-09-07T07:42:15;101915.19;;;18.34;81.77
75192;BME280;63771;52.580;9.734;2023-09-07T07:44:40;101918.50;;;18.45;80.73
75192;BME280;63771;52.580;9.734;2023-09-07T07:47:06;101923.19;;;18.50;80.87
75192;BME280;63771;52.580;9.734;2023-09-07T07:49:31;101924.50;;;18.57;81.51
75192;BME280;63771;52.580;9.734;2023-09-07T07:51:57;101923.38;;;18.65;81.28
75192;BME280;63771;52.580;9.734;2023-09-07T07:54:23;101924.94;;;18.75;81.11
75192;BME280;63771;52.580;9.734;2023-09-07T07:56:50;101916.88;;;18.84;80.05
75192;BME280;63771;52.580;9.734;2023-09-07T07:59:15;101925.19;;;18.91;80.00
75192;BME280;63771;52.580;9.734;2023-09-07T08:01:40;101920.63;;;19.00;78.82
75192;BME280;63771;52.580;9.734;2023-09-07T08:04:07;101923.63;;;19.07;79.27
75192;BME280;63771;52.580;9.734;2023-09-07T08:06:32;101925.00;;;19.15;78.69
75192;BME280;63771;52.580;9.734;2023-09-07T08:08:57;101914.97;;;19.19;79.20
75192;BME280;63771;52.580;9.734;2023-09-07T08:11:23;101910.63;;;19.32;79.17
75192;BME280;63771;52.580;9.734;2023-09-07T08:13:49;101915.41;;;19.39;78.71
75192;BME280;63771;52.580;9.734;2023-09-07T08:16:14;101904.84;;;19.49;77.69
75192;BME280;63771;52.580;9.734;2023-09-07T08:18:39;101910.84;;;19.61;77.36
75192;BME280;63771;52.580;9.734;2023-09-07T08:21:05;101903.59;;;19.69;77.10
75192;BME280;63771;52.580;9.734;2023-09-07T08:23:30;101898.97;;;19.78;77.53
75192;BME280;63771;52.580;9.734;2023-09-07T08:25:56;101899.03;;;19.93;75.77
75192;BME280;63771;52.580;9.734;2023-09-07T08:28:21;101904.59;;;19.99;74.75
75192;BME280;63771;52.580;9.734;2023-09-07T08:30:49;101896.31;;;20.04;74.71
75192;BME280;63771;52.580;9.734;2023-09-07T08:33:16;101904.69;;;20.14;73.98
75192;BME280;63771;52.580;9.734;2023-09-07T08:35:42;101900.59;;;20.17;74.27
75192;BME280;63771;52.580;9.734;2023-09-07T08:38:09;101904.38;;;20.22;74.63
75192;BME280;63771;52.580;9.734;2023-09-07T08:40:35;101902.16;;;20.28;73.34
75192;BME280;63771;52.580;9.734;2023-09-07T08:43:04;101909.47;;;20.36;73.24
75192;BME280;63771;52.580;9.734;2023-09-07T08:45:31;101906.41;;;20.41;73.74
75192;BME280;63771;52.580;9.734;2023-09-07T08:48:02;101911.75;;;20.44;73.45
75192;BME280;63771;52.580;9.734;2023-09-07T08:50:29;101913.53;;;20.58;71.81
75192;BME280;63771;52.580;9.734;2023-09-07T08:52:55;101908.63;;;20.63;72.14
75192;BME280;63771;52.580;9.734;2023-09-07T08:55:24;101902.19;;;20.71;72.85
75192;BME280;63771;52.580;9.734;2023-09-07T08:57:50;101899.16;;;20.78;71.87
75192;BME280;63771;52.580;9.734;2023-09-07T09:00:16;101908.41;;;20.88;71.29
75192;BME280;63771;52.580;9.734;2023-09-07T09:02:42;101909.94;;;20.99;70.24
75192;BME280;63771;52.580;9.734;2023-09-07T09:05:09;101903.56;;;21.09;69.89
75192;BME280;63771;52.580;9.734;2023-09-07T09:07:35;101904.00;;;21.17;70.03
75192;BME280;63771;52.580;9.734;2023-09-07T09:10:07;101911.59;;;21.28;68.25
75192;BME280;63771;52.580;9.734;2023-09-07T09:12:33;101898.91;;;21.33;68.58
75192;BME280;63771;52.580;9.734;2023-09-07T09:15:00;101901.97;;;21.41;67.88
75192;BME280;63771;52.580;9.734;2023-09-07T09:17:26;101904.91;;;21.47;66.84
75192;BME280;63771;52.580;9.734;2023-09-07T09:19:52;101908.13;;;21.57;66.69
75192;BME280;63771;52.580;9.734;2023-09-07T09:22:17;101901.47;;;21.62;66.70
75192;BME280;63771;52.580;9.734;2023-09-07T09:24:42;101903.59;;;21.70;67.29
75192;BME280;63771;52.580;9.734;2023-09-07T09:27:08;101907.34;;;21.75;66.55
75192;BME280;63771;52.580;9.734;2023-09-07T09:29:34;101909.91;;;21.89;64.18
75192;BME280;63771;52.580;9.734;2023-09-07T09:32:07;101902.75;;;22.02;63.53
75192;BME280;63771;52.580;9.734;2023-09-07T09:34:33;101898.47;;;22.02;64.09
75192;BME280;63771;52.580;9.734;2023-09-07T09:36:59;101900.34;;;22.05;64.53
75192;BME280;63771;52.580;9.734;2023-09-07T09:39:24;101895.59;;;22.12;62.83
75192;BME280;63771;52.580;9.734;2023-09-07T09:41:50;101888.66;;;22.13;63.53
75192;BME280;63771;52.580;9.734;2023-09-07T09:44:16;101895.19;;;22.21;64.01
75192;BME280;63771;52.580;9.734;2023-09-07T09:46:42;101899.81;;;22.27;64.40
75192;BME280;63771;52.580;9.734;2023-09-07T09:49:08;101897.16;;;22.42;61.38
75192;BME280;63771;52.580;9.734;2023-09-07T09:51:36;101886.09;;;22.46;61.71
75192;BME280;63771;52.580;9.734;2023-09-07T09:54:03;101888.19;;;22.53;61.97
75192;BME280;63771;52.580;9.734;2023-09-07T09:56:28;101889.31;;;22.58;61.43
75192;BME280;63771;52.580;9.734;2023-09-07T09:58:54;101887.94;;;22.64;61.92
75192;BME280;63771;52.580;9.734;2023-09-07T10:01:19;101873.63;;;22.73;62.35
75192;BME280;63771;52.580;9.734;2023-09-07T10:03:46;101876.91;;;22.86;58.83
75192;BME280;63771;52.580;9.734;2023-09-07T10:06:19;101877.09;;;22.89;60.34
75192;BME280;63771;52.580;9.734;2023-09-07T10:08:59;101869.47;;;22.92;60.77
75192;BME280;63771;52.580;9.734;2023-09-07T10:11:35;101876.69;;;22.98;60.42
75192;BME280;63771;52.580;9.734;2023-09-07T10:14:06;101875.28;;;23.05;60.49
75192;BME280;63771;52.580;9.734;2023-09-07T10:16:42;101862.06;;;23.18;61.05
75192;BME280;63771;52.580;9.734;2023-09-07T10:19:19;101861.53;;;23.25;59.79
75192;BME280;63771;52.580;9.734;2023-09-07T10:21:44;101855.88;;;23.34;60.08
75192;BME280;63771;52.580;9.734;2023-09-07T10:24:10;101851.03;;;23.41;60.35
75192;BME280;63771;52.580;9.734;2023-09-07T10:26:36;101848.63;;;23.46;59.40
75192;BME280;63771;52.580;9.734;2023-09-07T10:29:01;101856.97;;;23.57;57.74
75192;BME280;63771;52.580;9.734;2023-09-07T10:31:29;101857.91;;;23.59;58.24
75192;BME280;63771;52.580;9.734;2023-09-07T10:34:08;101858.34;;;23.66;59.01
75192;BME280;63771;52.580;9.734;2023-09-07T10:36:35;101855.94;;;23.71;58.72
75192;BME280;63771;52.580;9.734;2023-09-07T10:39:02;101855.25;;;23.75;59.10
75192;BME280;63771;52.580;9.734;2023-09-07T10:41:39;101852.94;;;23.81;59.23
75192;BME280;63771;52.580;9.734;2023-09-07T10:44:04;101853.22;;;23.87;58.81
75192;BME280;63771;52.580;9.734;2023-09-07T10:46:31;101845.81;;;23.97;58.10
75192;BME280;63771;52.580;9.734;2023-09-07T10:48:57;101840.31;;;24.10;55.96
75192;BME280;63771;52.580;9.734;2023-09-07T10:51:22;101840.31;;;24.10;56.46
75192;BME280;63771;52.580;9.734;2023-09-07T10:53:48;101838.81;;;24.15;56.64
75192;BME280;63771;52.580;9.734;2023-09-07T10:56:14;101846.84;;;24.19;56.37
75192;BME280;63771;52.580;9.734;2023-09-07T10:58:39;101847.75;;;24.20;57.11
75192;BME280;63771;52.580;9.734;2023-09-07T11:01:07;101834.97;;;24.26;57.12
75192;BME280;63771;52.580;9.734;2023-09-07T11:03:33;101843.81;;;24.30;57.68
75192;BME280;63771;52.580;9.734;2023-09-07T11:06:05;101845.16;;;24.39;57.46
75192;BME280;63771;52.580;9.734;2023-09-07T11:08:33;101829.75;;;24.45;56.50
75192;BME280;63771;52.580;9.734;2023-09-07T11:10:59;101831.81;;;24.53;56.49
75192;BME280;63771;52.580;9.734;2023-09-07T11:13:26;101829.44;;;24.59;55.33
75192;BME280;63771;52.580;9.734;2023-09-07T11:15:57;101826.09;;;24.61;55.91
75192;BME280;63771;52.580;9.734;2023-09-07T11:18:23;101821.03;;;24.64;55.23
75192;BME280;63771;52.580;9.734;2023-09-07T11:20:50;101818.47;;;24.66;55.64
75192;BME280;63771;52.580;9.734;2023-09-07T11:23:17;101817.00;;;24.72;55.53
75192;BME280;63771;52.580;9.734;2023-09-07T11:25:43;101820.28;;;24.89;53.26
75192;BME280;63771;52.580;9.734;2023-09-07T11:28:08;101814.13;;;24.87;54.46
75192;BME280;63771;52.580;9.734;2023-09-07T11:30:35;101810.69;;;24.88;54.72
75192;BME280;63771;52.580;9.734;2023-09-07T11:33:04;101804.06;;;24.96;54.91
75192;BME280;63771;52.580;9.734;2023-09-07T11:35:30;101811.25;;;25.02;55.30
75192;BME280;63771;52.580;9.734;2023-09-07T11:37:55;101802.13;;;25.12;53.99
75192;BME280;63771;52.580;9.734;2023-09-07T11:40:20;101803.28;;;25.20;54.20
75192;BME280;63771;52.580;9.734;2023-09-07T11:42:46;101805.22;;;25.24;54.43
75192;BME280;63771;52.580;9.734;2023-09-07T11:45:11;101806.22;;;25.28;53.90
75192;BME280;63771;52.580;9.734;2023-09-07T11:47:38;101805.75;;;25.38;52.69
75192;BME280;63771;52.580;9.734;2023-09-07T11:50:05;101797.13;;;25.40;53.79
75192;BME280;63771;52.580;9.734;2023-09-07T11:52:32;101809.50;;;25.44;52.22
75192;BME280;63771;52.580;9.734;2023-09-07T11:54:57;101797.25;;;25.43;52.44
75192;BME280;63771;52.580;9.734;2023-09-07T11:57:22;101804.50;;;25.50;51.85
75192;BME280;63771;52.580;9.734;2023-09-07T11:59:48;101806.22;;;25.50;52.53
75192;BME280;63771;52.580;9.734;2023-09-07T12:02:13;101801.94;;;25.52;52.49
75192;BME280;63771;52.580;9.734;2023-09-07T12:04:40;101792.50;;;25.56;52.67
75192;BME280;63771;52.580;9.734;2023-09-07T12:07:05;101793.56;;;25.61;53.08
75192;BME280;63771;52.580;9.734;2023-09-07T12:09:31;101794.66;;;25.67;51.45
75192;BME280;63771;52.580;9.734;2023-09-07T12:11:56;101785.19;;;25.69;52.65
75192;BME280;63771;52.580;9.734;2023-09-07T12:14:21;101793.34;;;25.77;52.31
75192;BME280;63771;52.580;9.734;2023-09-07T12:16:47;101785.00;;;25.87;50.75
75192;BME280;63771;52.580;9.734;2023-09-07T12:19:13;101789.38;;;25.88;50.25
75192;BME280;63771;52.580;9.734;2023-09-07T12:21:38;101786.69;;;25.85;50.72
75192;BME280;63771;52.580;9.734;2023-09-07T12:24:03;101785.84;;;25.86;51.46
75192;BME280;63771;52.580;9.734;2023-09-07T12:26:29;101784.16;;;25.88;51.91
75192;BME280;63771;52.580;9.734;2023-09-07T12:28:54;101779.97;;;25.93;50.24
75192;BME280;63771;52.580;9.734;2023-09-07T12:31:19;101779.97;;;25.93;50.86
75192;BME280;63771;52.580;9.734;2023-09-07T12:33:45;101781.88;;;25.97;50.74
75192;BME280;63771;52.580;9.734;2023-09-07T12:36:11;101777.66;;;26.01;51.08
75192;BME280;63771;52.580;9.734;2023-09-07T12:38:37;101773.53;;;26.08;49.88
75192;BME280;63771;52.580;9.734;2023-09-07T12:41:02;101771.72;;;26.05;50.46
75192;BME280;63771;52.580;9.734;2023-09-07T12:43:28;101766.53;;;26.07;50.23
75192;BME280;63771;52.580;9.734;2023-09-07T12:45:53;101771.84;;;26.10;50.90